createdAt,value
2022-12-03T00:00:40.176Z,14.02
2022-12-03T00:03:06.895Z,14.01
2022-12-03T00:05:33.566Z,14.02
2022-12-03T00:08:00.294Z,13.99
2022-12-03T00:10:27.013Z,13.99
2022-12-03T00:12:53.559Z,13.98
2022-12-03T00:15:20.078Z,13.96
2022-12-03T00:17:46.609Z,13.95
2022-12-03T00:20:23.794Z,13.93
2022-12-03T00:22:50.824Z,13.93
2022-12-03T00:25:17.883Z,13.93
2022-12-03T00:27:44.549Z,13.90
2022-12-03T00:30:13.340Z,13.94
2022-12-03T00:32:41.726Z,13.90
2022-12-03T00:35:09.016Z,13.89
2022-12-03T00:37:35.607Z,13.87
2022-12-03T00:40:04.478Z,13.89
2022-12-03T00:42:31.559Z,13.88
2022-12-03T00:44:58.190Z,13.86
2022-12-03T00:47:25.016Z,13.88
2022-12-03T00:49:51.589Z,13.84
2022-12-03T00:52:18.174Z,13.85
2022-12-03T00:54:45.470Z,13.81
2022-12-03T00:57:12.208Z,13.85
2022-12-03T00:59:40.966Z,13.83
2022-12-03T01:02:07.604Z,13.81
2022-12-03T01:04:34.374Z,13.76
2022-12-03T01:07:01.141Z,13.77
2022-12-03T01:09:27.687Z,13.79
2022-12-03T01:11:54.287Z,13.78
2022-12-03T01:14:20.895Z,13.78
2022-12-03T01:16:48.103Z,13.71
2022-12-03T01:19:16.275Z,13.73
2022-12-03T01:21:44.435Z,13.76
2022-12-03T01:24:11.434Z,13.75
2022-12-03T01:26:38.939Z,13.72
2022-12-03T01:29:06.150Z,13.72
2022-12-03T01:31:51.576Z,13.70
2022-12-03T01:34:18.200Z,13.70
2022-12-03T01:36:44.811Z,13.70
2022-12-03T01:39:11.686Z,13.66
2022-12-03T01:41:38.781Z,13.67
2022-12-03T01:44:15.770Z,13.67
2022-12-03T01:46:42.929Z,13.65
2022-12-03T01:49:15.293Z,13.62
2022-12-03T01:51:41.838Z,13.62
2022-12-03T01:54:16.466Z,13.65
2022-12-03T01:56:43.327Z,13.63
2022-12-03T01:59:15.680Z,13.61
2022-12-03T02:01:42.648Z,13.60
2022-12-03T02:04:13.038Z,13.58
2022-12-03T02:06:40.229Z,13.60
2022-12-03T02:09:08.720Z,13.59
2022-12-03T02:11:38.817Z,13.59
2022-12-03T02:14:18.071Z,13.57
2022-12-03T02:16:45.050Z,13.55
2022-12-03T02:19:30.532Z,13.57
2022-12-03T02:22:03.969Z,13.54
2022-12-03T02:24:46.684Z,13.53
2022-12-03T02:27:13.293Z,13.50
2022-12-03T02:29:39.921Z,13.51
2022-12-03T02:32:06.530Z,13.50
2022-12-03T02:34:44.908Z,13.47
2022-12-03T02:37:33.547Z,13.49
2022-12-03T02:40:04.014Z,13.47
2022-12-03T02:42:37.137Z,13.44
2022-12-03T02:45:09.172Z,13.45
2022-12-03T02:47:41.409Z,13.42
2022-12-03T02:50:09.514Z,13.41
2022-12-03T02:52:36.452Z,13.43
2022-12-03T02:55:05.526Z,13.43
2022-12-03T02:57:33.404Z,13.41
2022-12-03T03:00:00.202Z,13.40
2022-12-03T03:02:28.282Z,13.39
2022-12-03T03:04:56.167Z,13.15
2022-12-03T03:07:23.052Z,13.37
2022-12-03T03:09:49.825Z,13.37
2022-12-03T03:12:16.621Z,13.35
2022-12-03T03:14:43.222Z,13.36
2022-12-03T03:17:09.925Z,13.35
2022-12-03T03:19:36.516Z,13.35
2022-12-03T03:22:03.388Z,13.34
2022-12-03T03:24:29.979Z,13.34
2022-12-03T03:26:56.574Z,13.32
2022-12-03T03:29:23.364Z,13.20
2022-12-03T03:31:50.146Z,13.31
2022-12-03T03:34:17.603Z,13.29
2022-12-03T03:36:45.242Z,13.31
2022-12-03T03:39:12.266Z,13.29
2022-12-03T03:41:39.014Z,13.29
2022-12-03T03:44:07.252Z,13.27
2022-12-03T03:46:35.613Z,13.26
2022-12-03T03:49:03.990Z,13.28
2022-12-03T03:51:32.671Z,13.26
2022-12-03T03:53:59.823Z,13.13
2022-12-03T03:56:27.106Z,13.25
2022-12-03T03:58:55.345Z,13.25
2022-12-03T04:01:23.929Z,13.26
2022-12-03T04:03:50.795Z,13.24
2022-12-03T04:06:17.317Z,13.24
2022-12-03T04:08:43.988Z,13.22
2022-12-03T04:11:29.125Z,13.21
2022-12-03T04:13:55.733Z,13.21
2022-12-03T04:16:22.362Z,13.20
2022-12-03T04:18:48.959Z,13.21
2022-12-03T04:21:42.189Z,13.19
2022-12-03T04:24:10.372Z,13.20
2022-12-03T04:26:55.515Z,13.17
2022-12-03T04:29:22.371Z,13.19
2022-12-03T04:32:07.439Z,13.17
2022-12-03T04:34:52.941Z,13.18
2022-12-03T04:37:19.780Z,13.17
2022-12-03T04:39:46.643Z,13.17
2022-12-03T04:42:13.192Z,13.17
2022-12-03T04:44:39.834Z,13.14
2022-12-03T04:47:06.260Z,13.12
2022-12-03T04:49:33.853Z,13.14
2022-12-03T04:52:00.673Z,13.13
2022-12-03T04:54:28.412Z,13.11
2022-12-03T04:56:54.975Z,13.11
2022-12-03T04:59:21.541Z,13.10
2022-12-03T05:01:48.596Z,13.10
2022-12-03T05:04:16.100Z,13.08
2022-12-03T05:06:42.938Z,13.09
2022-12-03T05:09:10.020Z,13.05
2022-12-03T05:11:36.754Z,13.07
2022-12-03T05:14:03.351Z,13.07
2022-12-03T05:16:29.965Z,13.06
2022-12-03T05:18:56.823Z,13.06
2022-12-03T05:21:23.653Z,13.06
2022-12-03T05:23:50.215Z,13.06
2022-12-03T05:26:17.071Z,13.05
2022-12-03T05:28:43.728Z,13.05
2022-12-03T05:31:10.506Z,13.07
2022-12-03T05:33:40.996Z,13.08
2022-12-03T05:36:10.872Z,13.10
2022-12-03T05:38:37.511Z,13.09
2022-12-03T05:41:24.344Z,13.09
2022-12-03T05:43:51.042Z,13.08
2022-12-03T05:46:17.826Z,13.10
2022-12-03T05:48:44.757Z,13.12
2022-12-03T05:51:11.367Z,13.12
2022-12-03T05:53:37.877Z,13.14
2022-12-03T05:56:04.656Z,13.16
2022-12-03T05:58:31.184Z,13.18
2022-12-03T06:00:57.645Z,13.19
2022-12-03T06:03:24.265Z,13.18
2022-12-03T06:05:50.967Z,13.20
2022-12-03T06:08:17.554Z,13.20
2022-12-03T06:10:44.197Z,13.21
2022-12-03T06:13:10.696Z,13.23
2022-12-03T06:15:42.088Z,13.23
2022-12-03T06:18:10.345Z,13.25
2022-12-03T06:20:36.908Z,13.27
2022-12-03T06:23:03.449Z,13.27
2022-12-03T06:25:30.011Z,13.29
2022-12-03T06:27:56.538Z,13.31
2022-12-03T06:30:23.079Z,13.31
2022-12-03T06:32:49.622Z,13.34
2022-12-03T06:35:16.181Z,13.34
2022-12-03T06:37:42.665Z,13.36
2022-12-03T06:40:09.763Z,13.33
2022-12-03T06:42:36.288Z,13.36
2022-12-03T06:45:03.386Z,13.37
2022-12-03T06:47:29.987Z,13.37
2022-12-03T06:49:56.518Z,13.38
2022-12-03T06:52:23.071Z,13.40
2022-12-03T06:54:49.619Z,13.42
2022-12-03T06:57:16.317Z,13.42
2022-12-03T06:59:42.813Z,13.44
2022-12-03T07:02:09.998Z,13.45
2022-12-03T07:04:36.684Z,13.46
2022-12-03T07:07:03.219Z,13.45
2022-12-03T07:09:29.711Z,13.61
2022-12-03T07:11:57.256Z,13.85
2022-12-03T07:14:23.875Z,13.94
2022-12-03T07:16:50.430Z,14.02
2022-12-03T07:19:17.080Z,14.15
2022-12-03T07:21:43.787Z,14.16
2022-12-03T07:24:10.329Z,14.10
2022-12-03T07:26:37.044Z,14.09
2022-12-03T07:29:04.041Z,14.09
2022-12-03T07:31:30.706Z,14.11
2022-12-03T07:33:57.288Z,14.15
2022-12-03T07:36:23.821Z,14.18
2022-12-03T07:38:50.340Z,14.19
2022-12-03T07:41:17.335Z,14.25
2022-12-03T07:43:45.198Z,14.29
2022-12-03T07:46:12.063Z,14.30
2022-12-03T07:48:38.660Z,14.30
2022-12-03T07:51:05.261Z,14.28
2022-12-03T07:53:31.780Z,14.29
2022-12-03T07:55:58.369Z,14.21
2022-12-03T07:58:24.949Z,14.25
2022-12-03T08:00:51.678Z,14.29
2022-12-03T08:03:18.243Z,14.27
2022-12-03T08:05:45.989Z,14.30
2022-12-03T08:08:12.626Z,14.35
2022-12-03T08:10:39.178Z,14.32
2022-12-03T08:13:12.790Z,14.50
2022-12-03T08:15:39.813Z,14.52
2022-12-03T08:18:14.068Z,14.33
2022-12-03T08:20:42.936Z,14.23
2022-12-03T08:23:15.836Z,14.19
2022-12-03T08:25:43.561Z,14.15
2022-12-03T08:28:19.087Z,14.16
2022-12-03T08:31:19.508Z,14.23
2022-12-03T08:33:53.156Z,14.19
2022-12-03T08:36:30.435Z,14.14
2022-12-03T08:39:33.196Z,14.17
2022-12-03T08:42:42.272Z,14.18
2022-12-03T08:45:40.166Z,14.22
2022-12-03T08:48:25.813Z,14.34
2022-12-03T08:51:04.844Z,14.16
2022-12-03T08:53:47.523Z,14.05
2022-12-03T08:56:19.812Z,14.03
2022-12-03T08:58:53.958Z,14.05
2022-12-03T09:01:56.480Z,14.05
2022-12-03T09:04:45.070Z,14.17
2022-12-03T09:07:11.676Z,14.24
2022-12-03T09:09:38.312Z,14.38
2022-12-03T09:12:05.225Z,14.77
2022-12-03T09:14:31.796Z,15.01
2022-12-03T09:16:58.441Z,14.89
2022-12-03T09:19:26.852Z,14.83
2022-12-03T09:21:54.688Z,14.79
2022-12-03T09:24:21.315Z,14.70
2022-12-03T09:26:47.941Z,14.75
2022-12-03T09:29:14.815Z,14.77
2022-12-03T09:31:41.801Z,14.81
2022-12-03T09:34:10.605Z,14.83
2022-12-03T09:36:37.130Z,14.84
2022-12-03T09:39:03.832Z,14.84
2022-12-03T09:41:30.589Z,14.86
2022-12-03T09:44:05.558Z,14.85
2022-12-03T09:46:35.495Z,14.91
2022-12-03T09:49:03.668Z,14.90
2022-12-03T09:51:36.657Z,14.91
2022-12-03T09:54:05.753Z,14.95
2022-12-03T09:56:37.606Z,14.79
2022-12-03T09:59:13.609Z,14.62
2022-12-03T10:01:40.317Z,14.50
2022-12-03T10:04:07.395Z,14.44
2022-12-03T10:06:34.015Z,14.39
2022-12-03T10:09:00.865Z,14.48
2022-12-03T10:11:30.140Z,15.26
2022-12-03T10:13:58.523Z,14.78
2022-12-03T10:16:26.503Z,14.66
2022-12-03T10:18:55.701Z,14.58
2022-12-03T10:21:39.030Z,14.54
2022-12-03T10:24:20.589Z,14.47
2022-12-03T10:26:51.172Z,14.44
2022-12-03T10:29:32.909Z,14.41
2022-12-03T10:32:03.201Z,14.38
2022-12-03T10:34:32.783Z,14.36
2022-12-03T10:37:09.451Z,14.36
2022-12-03T10:40:09.148Z,14.34
2022-12-03T10:42:38.113Z,14.32
2022-12-03T10:45:18.412Z,14.30
2022-12-03T10:48:16.503Z,14.30
2022-12-03T10:50:48.761Z,14.28
2022-12-03T10:53:16.148Z,14.28
2022-12-03T10:55:44.974Z,14.27
2022-12-03T10:58:26.446Z,14.28
2022-12-03T11:00:55.424Z,14.27
2022-12-03T11:03:27.664Z,14.27
2022-12-03T11:05:56.164Z,14.25
2022-12-03T11:08:25.695Z,14.25
2022-12-03T11:11:20.300Z,14.26
2022-12-03T11:13:57.789Z,14.22
2022-12-03T11:16:39.789Z,14.22
2022-12-03T11:19:19.020Z,14.21
2022-12-03T11:22:04.799Z,14.22
2022-12-03T11:24:36.374Z,14.22
2022-12-03T11:27:02.922Z,14.23
2022-12-03T11:29:44.922Z,14.23
2022-12-03T11:32:11.578Z,14.21
2022-12-03T11:34:41.384Z,14.20
2022-12-03T11:37:11.143Z,14.22
2022-12-03T11:39:49.857Z,14.23
2022-12-03T11:42:28.582Z,14.23
2022-12-03T11:45:04.476Z,14.22
2022-12-03T11:47:38.608Z,14.22
2022-12-03T11:50:23.540Z,14.19
2022-12-03T11:52:55.695Z,14.16
2022-12-03T11:55:37.909Z,14.15
2022-12-03T11:58:13.337Z,14.15
2022-12-03T12:00:48.837Z,14.13
2022-12-03T12:03:24.991Z,14.11
2022-12-03T12:06:07.699Z,14.09
2022-12-03T12:08:36.627Z,14.07
2022-12-03T12:11:03.696Z,14.18
2022-12-03T12:13:36.024Z,14.72
2022-12-03T12:16:05.314Z,15.05
2022-12-03T12:18:35.029Z,15.14
2022-12-03T12:21:42.455Z,15.03
2022-12-03T12:24:28.020Z,15.26
2022-12-03T12:26:55.341Z,15.32
2022-12-03T12:29:22.085Z,15.28
2022-12-03T12:31:53.739Z,15.23
2022-12-03T12:34:20.862Z,15.16
2022-12-03T12:36:47.474Z,15.15
2022-12-03T12:39:16.504Z,15.09
2022-12-03T12:41:48.983Z,15.09
2022-12-03T12:44:15.446Z,15.06
2022-12-03T12:46:47.999Z,15.03
2022-12-03T12:49:15.691Z,15.01
2022-12-03T12:51:46.924Z,15.03
2022-12-03T12:54:15.957Z,15.04
2022-12-03T12:56:50.046Z,15.03
2022-12-03T12:59:20.268Z,15.00
2022-12-03T13:01:49.626Z,15.01
2022-12-03T13:04:22.586Z,15.11
2022-12-03T13:06:52.776Z,15.24
2022-12-03T13:09:24.841Z,15.26
2022-12-03T13:12:03.998Z,15.31
2022-12-03T13:14:32.948Z,15.34
2022-12-03T13:17:01.831Z,15.31
2022-12-03T13:19:46.094Z,15.33
2022-12-03T13:22:22.245Z,15.32
2022-12-03T13:24:51.038Z,15.34
2022-12-03T13:27:17.447Z,15.38
2022-12-03T13:30:01.715Z,15.42
2022-12-03T13:32:32.420Z,15.46
2022-12-03T13:35:27.812Z,15.39
2022-12-03T13:37:54.354Z,15.23
2022-12-03T13:40:27.238Z,15.19
2022-12-03T13:42:54.909Z,15.17
2022-12-03T13:45:30.929Z,15.10
2022-12-03T13:48:01.772Z,15.04
2022-12-03T13:50:35.531Z,15.02
2022-12-03T13:53:26.989Z,15.05
2022-12-03T13:56:16.637Z,15.06
2022-12-03T13:58:43.230Z,15.04
2022-12-03T14:01:09.805Z,15.02
2022-12-03T14:03:36.382Z,15.00
2022-12-03T14:06:03.083Z,14.98
2022-12-03T14:08:29.687Z,15.01
2022-12-03T14:11:00.510Z,14.96
2022-12-03T14:13:27.689Z,14.94
2022-12-03T14:15:54.409Z,14.93
2022-12-03T14:18:21.012Z,14.92
2022-12-03T14:20:48.386Z,14.94
2022-12-03T14:23:15.736Z,14.85
2022-12-03T14:25:43.927Z,14.94
2022-12-03T14:28:10.830Z,15.01
2022-12-03T14:30:37.668Z,15.04
2022-12-03T14:33:04.822Z,15.03
2022-12-03T14:35:31.336Z,14.89
2022-12-03T14:37:57.879Z,14.92
2022-12-03T14:40:24.526Z,14.99
2022-12-03T14:42:51.110Z,15.08
2022-12-03T14:45:18.082Z,15.02
2022-12-03T14:47:44.685Z,14.97
2022-12-03T14:50:14.333Z,14.92
2022-12-03T14:52:41.491Z,14.93
2022-12-03T14:55:08.515Z,14.92
2022-12-03T14:57:36.777Z,14.90
2022-12-03T15:00:05.607Z,14.90
2022-12-03T15:02:32.597Z,14.88
2022-12-03T15:04:59.150Z,14.89
2022-12-03T15:07:25.796Z,14.87
2022-12-03T15:09:52.643Z,14.87
2022-12-03T15:12:19.389Z,14.85
2022-12-03T15:14:45.942Z,14.85
2022-12-03T15:17:12.536Z,14.84
2022-12-03T15:19:39.127Z,14.83
2022-12-03T15:22:05.698Z,14.84
2022-12-03T15:24:32.518Z,14.80
2022-12-03T15:26:59.085Z,14.83
2022-12-03T15:29:25.644Z,14.95
2022-12-03T15:31:52.172Z,14.90
2022-12-03T15:34:22.594Z,14.76
2022-12-03T15:36:49.767Z,14.63
2022-12-03T15:39:16.305Z,14.60
2022-12-03T15:41:42.811Z,14.54
2022-12-03T15:44:09.361Z,14.53
2022-12-03T15:46:36.085Z,14.51
2022-12-03T15:49:02.699Z,14.52
2022-12-03T15:51:29.299Z,14.54
2022-12-03T15:53:55.808Z,14.54
2022-12-03T15:56:22.480Z,14.53
2022-12-03T15:58:49.094Z,14.54
2022-12-03T16:01:18.220Z,14.57
2022-12-03T16:03:45.416Z,14.65
2022-12-03T16:06:12.869Z,14.79
2022-12-03T16:08:39.471Z,14.85
2022-12-03T16:11:06.169Z,14.80
2022-12-03T16:13:32.763Z,14.75
2022-12-03T16:15:59.864Z,14.75
2022-12-03T16:18:26.560Z,14.76
2022-12-03T16:20:53.172Z,14.85
2022-12-03T16:23:19.782Z,14.86
2022-12-03T16:25:46.444Z,14.90
2022-12-03T16:28:12.981Z,14.87
2022-12-03T16:30:39.881Z,14.94
2022-12-03T16:33:06.713Z,14.99
2022-12-03T16:35:33.286Z,15.01
2022-12-03T16:37:59.810Z,15.01
2022-12-03T16:40:26.626Z,15.01
2022-12-03T16:42:53.091Z,15.05
2022-12-03T16:45:33.308Z,15.00
2022-12-03T16:48:01.302Z,14.99
2022-12-03T16:50:30.310Z,14.98
2022-12-03T16:52:57.705Z,14.97
2022-12-03T16:55:24.654Z,14.95
2022-12-03T16:57:51.127Z,14.93
2022-12-03T17:00:17.926Z,14.93
2022-12-03T17:02:44.534Z,14.93
2022-12-03T17:05:11.234Z,14.92
2022-12-03T17:07:37.845Z,14.92
2022-12-03T17:10:04.987Z,14.91
2022-12-03T17:13:00.761Z,14.89
2022-12-03T17:15:18.876Z,14.79
2022-12-03T17:17:45.736Z,14.74
2022-12-03T17:20:14.607Z,14.73
2022-12-03T17:22:41.656Z,14.76
2022-12-03T17:25:08.817Z,14.86
2022-12-03T17:27:37.051Z,14.83
2022-12-03T17:30:07.827Z,14.83
2022-12-03T17:32:34.441Z,14.91
2022-12-03T17:35:19.225Z,14.98
2022-12-03T17:37:46.087Z,15.01
2022-12-03T17:40:14.279Z,15.07
2022-12-03T17:42:40.841Z,15.00
2022-12-03T17:45:07.994Z,14.96
2022-12-03T17:47:34.624Z,15.06
2022-12-03T17:50:01.159Z,15.11
2022-12-03T17:52:27.776Z,15.13
2022-12-03T17:55:14.006Z,15.14
2022-12-03T17:57:40.826Z,15.13
2022-12-03T18:00:07.962Z,15.06
2022-12-03T18:02:41.606Z,15.00
2022-12-03T18:05:08.855Z,14.92
2022-12-03T18:07:35.499Z,14.84
2022-12-03T18:10:02.280Z,14.73
2022-12-03T18:12:28.826Z,14.73
2022-12-03T18:14:55.408Z,14.71
2022-12-03T18:17:23.496Z,14.70
2022-12-03T18:19:50.255Z,14.69
2022-12-03T18:22:17.317Z,14.64
2022-12-03T18:24:46.249Z,14.66
2022-12-03T18:27:14.968Z,14.70
2022-12-03T18:29:41.465Z,14.78
2022-12-03T18:32:27.178Z,14.86
2022-12-03T18:34:55.738Z,14.85
2022-12-03T18:37:24.119Z,14.82
2022-12-03T18:39:50.748Z,14.82
2022-12-03T18:42:19.568Z,14.81
2022-12-03T18:44:49.781Z,14.81
2022-12-03T18:47:22.399Z,14.81
2022-12-03T18:49:49.311Z,14.78
2022-12-03T18:52:19.185Z,14.82
2022-12-03T18:54:46.379Z,14.85
2022-12-03T18:57:13.236Z,14.80
2022-12-03T18:59:39.916Z,14.82
2022-12-03T19:02:08.120Z,14.82
2022-12-03T19:04:34.788Z,14.84
2022-12-03T19:07:01.387Z,14.86
2022-12-03T19:09:28.001Z,14.90
2022-12-03T19:11:54.536Z,14.76
2022-12-03T19:14:21.099Z,14.44
2022-12-03T19:16:49.999Z,14.58
2022-12-03T19:19:17.366Z,14.58
2022-12-03T19:21:43.940Z,14.60
2022-12-03T19:24:25.894Z,14.59
2022-12-03T19:26:54.755Z,14.58
2022-12-03T19:29:23.101Z,14.59
2022-12-03T19:31:51.403Z,14.60
2022-12-03T19:34:18.452Z,14.62
2022-12-03T19:36:45.152Z,14.64
2022-12-03T19:39:11.793Z,14.69
2022-12-03T19:41:39.321Z,14.76
2022-12-03T19:44:10.755Z,14.84
2022-12-03T19:46:37.750Z,13.60
2022-12-03T19:49:04.866Z,14.15
2022-12-03T19:51:35.104Z,14.23
2022-12-03T19:54:07.116Z,14.34
2022-12-03T19:56:34.648Z,14.48
2022-12-03T19:59:01.664Z,14.55
2022-12-03T20:01:31.173Z,14.63
2022-12-03T20:04:00.258Z,14.69
2022-12-03T20:06:29.254Z,14.71
2022-12-03T20:09:00.291Z,14.73
2022-12-03T20:11:30.407Z,14.77
2022-12-03T20:14:00.289Z,14.83
2022-12-03T20:16:27.984Z,14.84
2022-12-03T20:19:00.539Z,14.84
2022-12-03T20:21:29.471Z,14.90
2022-12-03T20:23:56.166Z,14.88
2022-12-03T20:26:23.010Z,14.51
2022-12-03T20:28:49.984Z,14.34
2022-12-03T20:31:20.711Z,14.21
2022-12-03T20:33:50.009Z,14.11
2022-12-03T20:36:19.014Z,14.07
2022-12-03T20:38:45.523Z,14.06
2022-12-03T20:41:18.632Z,14.04
2022-12-03T20:43:45.632Z,14.03
2022-12-03T20:46:27.090Z,14.02
2022-12-03T20:48:54.295Z,13.99
2022-12-03T20:51:23.164Z,13.97
2022-12-03T20:53:50.306Z,13.94
2022-12-03T20:56:20.172Z,13.92
2022-12-03T20:58:48.718Z,13.90
2022-12-03T21:01:17.626Z,13.87
2022-12-03T21:03:45.144Z,13.86
2022-12-03T21:06:13.507Z,13.83
2022-12-03T21:08:42.358Z,13.83
2022-12-03T21:11:14.833Z,13.84
2022-12-03T21:13:43.659Z,13.79
2022-12-03T21:16:12.872Z,13.80
2022-12-03T21:18:41.347Z,13.79
2022-12-03T21:21:10.431Z,13.80
2022-12-03T21:23:37.429Z,13.79
2022-12-03T21:26:10.685Z,13.79
2022-12-03T21:28:39.709Z,13.78
2022-12-03T21:31:13.678Z,13.77
2022-12-03T21:33:40.598Z,13.76
2022-12-03T21:36:08.784Z,13.74
2022-12-03T21:38:36.246Z,13.71
2022-12-03T21:41:04.495Z,13.73
2022-12-03T21:43:32.234Z,13.70
2022-12-03T21:45:58.947Z,13.68
2022-12-03T21:48:25.801Z,13.66
2022-12-03T21:51:00.749Z,13.63
2022-12-03T21:53:28.227Z,13.62
2022-12-03T21:55:54.826Z,13.58
2022-12-03T21:58:21.699Z,13.58
2022-12-03T22:00:48.378Z,13.59
2022-12-03T22:03:15.033Z,13.58
2022-12-03T22:05:41.766Z,13.57
2022-12-03T22:08:09.474Z,13.56
2022-12-03T22:10:36.487Z,13.51
2022-12-03T22:13:03.083Z,13.51
2022-12-03T22:15:30.001Z,13.49
2022-12-03T22:17:56.594Z,13.47
2022-12-03T22:20:23.450Z,13.45
2022-12-03T22:22:50.120Z,13.45
2022-12-03T22:25:16.925Z,13.44
2022-12-03T22:27:43.561Z,13.42
2022-12-03T22:30:10.347Z,13.39
2022-12-03T22:32:37.001Z,13.39
2022-12-03T22:35:03.786Z,13.39
2022-12-03T22:37:30.437Z,13.36
2022-12-03T22:39:57.309Z,13.33
2022-12-03T22:42:24.208Z,13.34
2022-12-03T22:44:50.913Z,13.31
2022-12-03T22:47:17.530Z,13.31
2022-12-03T22:49:44.187Z,13.30
2022-12-03T22:52:10.788Z,13.33
2022-12-03T22:54:37.389Z,13.30
2022-12-03T22:57:03.909Z,13.29
2022-12-03T22:59:30.696Z,13.26
2022-12-03T23:01:57.266Z,13.27
2022-12-03T23:04:23.848Z,13.23
2022-12-03T23:06:50.458Z,13.23
2022-12-03T23:09:17.071Z,13.22
2022-12-03T23:11:45.418Z,13.21
2022-12-03T23:14:12.801Z,13.20
2022-12-03T23:16:40.343Z,13.20
2022-12-03T23:19:07.552Z,13.16
2022-12-03T23:21:35.538Z,13.13
2022-12-03T23:24:04.565Z,13.14
2022-12-03T23:26:34.575Z,13.13
2022-12-03T23:29:01.166Z,13.11
2022-12-03T23:31:30.455Z,13.10
2022-12-03T23:33:58.536Z,13.07
2022-12-03T23:36:27.006Z,13.10
2022-12-03T23:38:54.671Z,13.06
2022-12-03T23:41:23.468Z,13.06
2022-12-03T23:43:50.376Z,13.05
2022-12-03T23:46:25.972Z,13.02
2022-12-03T23:48:52.617Z,13.04
2022-12-03T23:51:22.264Z,13.01
2022-12-03T23:53:49.181Z,12.99
2022-12-03T23:56:19.458Z,13.02
2022-12-03T23:58:46.678Z,12.98
